Time;durP1;ratioP1;P1;durP2;ratioP2;P2;SDS_P1;SDS_P2;PMS_P1;PMS_P2;Temp;Humidity;BMP_temperature;BMP_pressure;BME280_temperature;BME280_humidity;BME280_pressure;Samples;Min_cycle;Max_cycle;Signal;HPM_P1;HPM_P2
2022/10/31 00:00:15;;;;;;;11.48;6.25;;;;;;;11.01;100.00;101265.63;698909;28;1265;-65
2022/10/31 00:00:36;;;;;;;11.82;6.45;;;;;;;10.95;100.00;101269.09;698172;28;1286;-66
2022/10/31 00:00:57;;;;;;;11.70;6.70;;;;;;;10.92;100.00;101274.28;697730;28;4648;-66
2022/10/31 00:01:23;;;;;;;11.38;6.38;;;;;;;10.88;100.00;101259.44;697557;28;1308;-66
2022/10/31 00:01:44;;;;;;;11.45;6.40;;;;;;;10.93;100.00;101257.75;698055;28;1070;-66
2022/10/31 00:02:04;;;;;;;11.60;6.30;;;;;;;11.01;100.00;101263.00;697575;28;1135;-66
2022/10/31 00:02:24;;;;;;;10.83;6.63;;;;;;;11.06;100.00;101264.75;697748;28;1190;-66
2022/10/31 00:02:45;;;;;;;10.73;6.53;;;;;;;11.14;100.00;101262.16;698537;28;1141;-65
2022/10/31 00:03:08;;;;;;;10.13;6.07;;;;;;;11.21;100.00;101269.13;698048;28;1260;-65
2022/10/31 00:03:28;;;;;;;9.10;6.30;;;;;;;11.24;100.00;101263.03;698086;28;1284;-65
2022/10/31 00:03:49;;;;;;;10.20;6.40;;;;;;;11.23;100.00;101266.56;695906;28;4405;-65
2022/10/31 00:04:09;;;;;;;10.20;6.27;;;;;;;11.23;100.00;101266.56;695561;28;2086;-65
2022/10/31 00:04:30;;;;;;;9.05;6.05;;;;;;;11.25;100.00;101267.41;696435;28;2118;-66
2022/10/31 00:04:50;;;;;;;10.83;6.00;;;;;;;11.25;100.00;101265.66;698108;28;1103;-66
2022/10/31 00:05:11;;;;;;;10.75;5.90;;;;;;;11.25;100.00;101273.50;697432;28;1129;-65
2022/10/31 00:05:31;;;;;;;10.37;5.97;;;;;;;11.28;100.00;101269.16;698242;28;1364;-66
2022/10/31 00:05:52;;;;;;;9.20;5.90;;;;;;;11.28;100.00;101259.56;698539;28;1245;-65
2022/10/31 00:06:12;;;;;;;10.02;5.80;;;;;;;11.24;100.00;101273.50;695754;28;1288;-65
2022/10/31 00:06:33;;;;;;;11.15;6.20;;;;;;;11.23;100.00;101267.41;697598;28;1195;-65
2022/10/31 00:06:53;;;;;;;10.90;6.10;;;;;;;11.17;100.00;101272.66;697660;28;4363;-65
2022/10/31 00:07:14;;;;;;;11.02;6.00;;;;;;;11.15;100.00;101270.91;698074;28;1079;-65
2022/10/31 00:07:34;;;;;;;11.10;6.00;;;;;;;11.13;100.00;101273.50;698468;28;1095;-65
2022/10/31 00:07:54;;;;;;;9.25;6.15;;;;;;;11.10;100.00;101272.63;698333;28;1145;-65
2022/10/31 00:08:16;;;;;;;10.50;6.50;;;;;;;11.07;100.00;101270.84;697414;28;1186;-66
2022/10/31 00:08:37;;;;;;;10.35;6.95;;;;;;;11.05;100.00;101270.00;697296;28;1250;-65
2022/10/31 00:09:00;;;;;;;9.57;6.60;;;;;;;11.03;100.00;101276.94;698690;28;1022;-65
2022/10/31 00:09:20;;;;;;;10.30;6.03;;;;;;;11.02;100.00;101273.47;697863;28;1236;-65
2022/10/31 00:09:40;;;;;;;9.97;6.30;;;;;;;11.01;100.00;101276.94;698713;28;1241;-66
2022/10/31 00:10:01;;;;;;;11.30;6.50;;;;;;;10.97;100.00;101276.94;696714;28;4377;-66
2022/10/31 00:10:21;;;;;;;12.65;6.50;;;;;;;10.93;100.00;101272.56;696911;28;1351;-65
2022/10/31 00:10:43;;;;;;;10.03;6.07;;;;;;;10.85;100.00;101270.78;698215;28;1406;-65
2022/10/31 00:11:07;;;;;;;9.50;6.00;;;;;;;10.84;100.00;101273.38;698472;28;1135;-66
2022/10/31 00:11:28;;;;;;;11.05;6.35;;;;;;;10.86;100.00;101271.66;697788;28;1091;-65
2022/10/31 00:11:49;;;;;;;10.43;6.57;;;;;;;10.86;100.00;101269.91;697829;28;1051;-65
2022/10/31 00:12:09;;;;;;;9.65;6.30;;;;;;;10.87;100.00;101268.19;698138;28;2012;-64
2022/10/31 00:12:29;;;;;;;9.07;6.35;;;;;;;10.88;100.00;101265.56;694225;28;1064;-65
2022/10/31 00:12:51;;;;;;;9.97;6.47;;;;;;;10.89;100.00;101267.31;694978;28;4405;-65
2022/10/31 00:13:13;;;;;;;11.27;6.57;;;;;;;10.92;100.00;101270.81;695382;28;1226;-66
2022/10/31 00:13:36;;;;;;;9.73;6.30;;;;;;;10.96;100.00;101269.97;695300;28;1403;-65
2022/10/31 00:13:59;;;;;;;10.90;6.25;;;;;;;10.99;100.00;101262.09;695588;28;1139;-65
2022/10/31 00:14:19;;;;;;;10.00;6.30;;;;;;;10.97;100.00;101261.25;696413;28;1275;-65
2022/10/31 00:14:39;;;;;;;10.23;6.30;;;;;;;10.98;100.00;101268.19;698266;28;1201;-66
2022/10/31 00:15:00;;;;;;;10.73;6.30;;;;;;;10.98;100.00;101265.59;700505;28;1226;-65
2022/10/31 00:15:20;;;;;;;9.93;6.05;;;;;;;10.98;100.00;101268.19;700937;28;1213;-66
2022/10/31 00:15:41;;;;;;;11.33;6.37;;;;;;;10.95;100.00;101270.81;699652;28;1291;-66
2022/10/31 00:16:01;;;;;;;11.65;6.03;;;;;;;10.94;100.00;101269.97;700318;28;4367;-66
2022/10/31 00:16:23;;;;;;;12.20;6.27;;;;;;;10.92;100.00;101265.59;700412;28;1426;-66
2022/10/31 00:16:44;;;;;;;12.00;6.40;;;;;;;10.88;100.00;101270.81;698923;28;1201;-67
2022/10/31 00:17:04;;;;;;;9.53;6.07;;;;;;;10.88;100.00;101267.31;697902;28;1121;-66
2022/10/31 00:17:24;;;;;;;9.47;6.07;;;;;;;10.84;100.00;101266.44;697744;28;1251;-66
2022/10/31 00:17:45;;;;;;;9.95;6.38;;;;;;;10.82;100.00;101267.28;698384;28;1141;-66
2022/10/31 00:18:07;;;;;;;11.03;6.40;;;;;;;10.81;100.00;101274.25;698691;28;1066;-65
2022/10/31 00:18:28;;;;;;;11.38;6.45;;;;;;;10.84;100.00;101271.66;697405;28;1063;-66
2022/10/31 00:18:49;;;;;;;11.43;6.93;;;;;;;10.84;100.00;101266.44;696627;28;4262;-66
2022/10/31 00:19:10;;;;;;;12.82;6.63;;;;;;;10.85;100.00;101267.28;697238;28;1114;-66
2022/10/31 00:19:30;;;;;;;12.60;6.40;;;;;;;10.82;100.00;101265.53;698141;28;1098;-65
2022/10/31 00:19:51;;;;;;;10.13;6.20;;;;;;;10.82;100.00;101268.16;698246;28;1028;-65
2022/10/31 00:20:11;;;;;;;11.10;6.37;;;;;;;10.87;100.00;101265.56;697727;28;4232;-67
2022/10/31 00:20:32;;;;;;;10.73;6.30;;;;;;;10.94;100.00;101261.22;695604;28;1067;-66
2022/10/31 00:21:03;;;;;;;11.63;6.67;;;;;;;10.99;100.00;101268.22;695275;28;1067;-66
2022/10/31 00:21:24;;;;;;;11.43;6.10;;;;;;;11.04;100.00;101270.84;698306;28;1096;-65
2022/10/31 00:21:44;;;;;;;12.32;6.20;;;;;;;11.03;100.00;101269.09;698650;28;4428;-65
2022/10/31 00:22:05;;;;;;;10.73;6.27;;;;;;;11.02;100.00;101264.72;699517;28;1124;-66
2022/10/31 00:22:25;;;;;;;11.17;6.40;;;;;;;11.00;100.00;101275.19;698923;28;1411;-65
2022/10/31 00:22:45;;;;;;;9.57;6.25;;;;;;;10.97;100.00;101272.56;698037;28;1070;-66
2022/10/31 00:23:06;;;;;;;9.57;6.20;;;;;;;10.94;100.00;101263.81;698454;28;1074;-65
2022/10/31 00:23:27;;;;;;;10.75;6.32;;;;;;;10.92;100.00;101271.69;698714;28;1011;-65
2022/10/31 00:23:48;;;;;;;9.93;5.78;;;;;;;10.96;100.00;101269.97;698557;28;1356;-65
2022/10/31 00:24:08;;;;;;;10.63;6.15;;;;;;;11.03;100.00;101266.47;698321;28;1159;-65
2022/10/31 00:24:29;;;;;;;10.33;6.00;;;;;;;11.10;100.00;101268.25;698713;28;1282;-65
2022/10/31 00:24:49;;;;;;;11.80;6.45;;;;;;;11.09;100.00;101266.53;697593;28;4520;-65
2022/10/31 00:25:09;;;;;;;10.33;6.07;;;;;;;11.03;100.00;101264.72;698145;28;1151;-65
2022/10/31 00:25:34;;;;;;;10.07;6.53;;;;;;;10.97;100.00;101272.56;698375;28;1373;-66
2022/10/31 00:25:59;;;;;;;11.68;6.30;;;;;;;10.90;100.00;101261.22;698274;28;1195;-65
2022/10/31 00:26:20;;;;;;;10.40;6.30;;;;;;;10.82;100.00;101265.53;696963;28;1146;-66
2022/10/31 00:26:41;;;;;;;9.20;6.20;;;;;;;10.79;100.00;101265.53;697345;28;1242;-66
2022/10/31 00:27:01;;;;;;;9.53;6.30;;;;;;;10.76;100.00;101265.53;697829;28;1396;-65
2022/10/31 00:27:22;;;;;;;10.88;6.47;;;;;;;10.72;100.00;101269.00;690911;28;1530;-66
2022/10/31 00:27:42;;;;;;;9.77;6.30;;;;;;;10.67;100.00;101270.72;693258;28;4456;-65
2022/10/31 00:28:04;;;;;;;10.13;6.20;;;;;;;10.60;100.00;101264.56;695813;28;970;-66
2022/10/31 00:28:25;;;;;;;12.85;6.65;;;;;;;10.57;100.00;101267.19;695564;28;1254;-66
2022/10/31 00:28:45;;;;;;;10.83;6.67;;;;;;;10.53;100.00;101271.50;695633;28;1012;-64
2022/10/31 00:29:06;;;;;;;10.10;6.95;;;;;;;10.52;100.00;101271.50;695820;28;1155;-64
2022/10/31 00:29:26;;;;;;;11.18;6.65;;;;;;;10.50;100.00;101263.66;697762;28;1204;-66
2022/10/31 00:29:47;;;;;;;10.00;6.50;;;;;;;10.49;100.00;101267.13;697909;28;1306;-65
2022/10/31 00:30:07;;;;;;;9.05;6.15;;;;;;;10.47;100.00;101263.66;694819;28;1084;-66
2022/10/31 00:30:28;;;;;;;10.17;6.10;;;;;;;10.45;100.00;101259.28;695534;28;1089;-66
2022/10/31 00:30:48;;;;;;;10.18;6.50;;;;;;;10.42;100.00;101265.34;695533;28;4597;-65
2022/10/31 00:31:11;;;;;;;12.13;6.77;;;;;;;10.41;100.00;101266.22;697853;28;1141;-66
2022/10/31 00:31:31;;;;;;;14.07;6.80;;;;;;;10.39;100.00;101271.44;697460;28;1091;-65
2022/10/31 00:31:52;;;;;;;12.80;6.57;;;;;;;10.40;100.00;101267.09;696193;28;1135;-66
2022/10/31 00:32:12;;;;;;;12.57;6.70;;;;;;;10.42;100.00;101264.50;697476;28;1914;-65
2022/10/31 00:32:33;;;;;;;10.73;6.72;;;;;;;10.44;100.00;101270.59;697726;28;1035;-66
2022/10/31 00:32:53;;;;;;;10.73;6.70;;;;;;;10.47;100.00;101262.78;694830;28;1144;-65
2022/10/31 00:33:13;;;;;;;12.13;6.47;;;;;;;10.49;100.00;101272.34;695297;28;963;-65
2022/10/31 00:33:36;;;;;;;10.87;6.57;;;;;;;10.53;100.00;101268.03;695803;28;1139;-65
2022/10/31 00:33:57;;;;;;;11.65;6.85;;;;;;;10.54;100.00;101264.56;695104;28;4400;-65
2022/10/31 00:34:20;;;;;;;11.27;7.10;;;;;;;10.55;100.00;101268.94;695414;28;1214;-65
2022/10/31 00:34:41;;;;;;;11.02;7.10;;;;;;;10.57;100.00;101267.19;696647;28;1396;-65
2022/10/31 00:35:01;;;;;;;13.27;7.27;;;;;;;10.58;100.00;101271.56;696487;28;1278;-66
2022/10/31 00:35:21;;;;;;;11.75;6.88;;;;;;;10.57;100.00;101265.44;697826;28;1324;-65
2022/10/31 00:35:42;;;;;;;12.17;6.80;;;;;;;10.56;100.00;101263.69;694983;28;1376;-65
2022/10/31 00:36:03;;;;;;;11.80;6.70;;;;;;;10.57;100.00;101261.94;692932;28;1404;-66
2022/10/31 00:36:23;;;;;;;11.57;6.70;;;;;;;10.56;100.00;101258.47;693309;28;1146;-65
2022/10/31 00:36:43;;;;;;;11.13;6.80;;;;;;;10.56;100.00;101261.09;692287;28;4471;-65
2022/10/31 00:37:07;;;;;;;12.10;7.18;;;;;;;10.54;100.00;101260.19;692634;28;1445;-65
2022/10/31 00:37:29;;;;;;;12.70;7.15;;;;;;;10.55;100.00;101261.94;693414;28;1209;-65
2022/10/31 00:37:51;;;;;;;12.27;7.13;;;;;;;10.53;100.00;101257.56;696674;28;1106;-66
2022/10/31 00:38:11;;;;;;;9.52;6.88;;;;;;;10.50;100.00;101258.44;694006;28;1354;-65
2022/10/31 00:38:32;;;;;;;9.83;6.73;;;;;;;10.51;100.00;101254.97;695406;28;1217;-65
2022/10/31 00:38:52;;;;;;;10.87;7.13;;;;;;;10.48;100.00;101254.06;695707;28;5279;-65
2022/10/31 00:39:15;;;;;;;11.00;6.88;;;;;;;10.45;100.00;101249.69;695422;28;1876;-66
2022/10/31 00:39:36;;;;;;;11.03;6.70;;;;;;;10.44;100.00;101249.69;695500;28;1205;-65
2022/10/31 00:39:56;;;;;;;11.57;6.30;;;;;;;10.45;100.00;101260.13;694960;28;4442;-66
2022/10/31 00:40:16;;;;;;;11.40;6.50;;;;;;;10.49;100.00;101251.44;698492;28;1257;-65
2022/10/31 00:40:36;;;;;;;11.63;6.72;;;;;;;10.53;100.00;101255.81;695072;28;1115;-67
2022/10/31 00:40:57;;;;;;;10.47;6.50;;;;;;;10.59;100.00;101259.34;695632;28;1205;-65
2022/10/31 00:41:17;;;;;;;12.20;6.40;;;;;;;10.61;100.00;101255.00;697655;28;1055;-65
2022/10/31 00:41:38;;;;;;;12.75;6.80;;;;;;;10.67;100.00;101262.88;698286;28;1149;-65
2022/10/31 00:42:04;;;;;;;11.40;6.57;;;;;;;10.73;100.00;101265.53;695587;28;1079;-65
2022/10/31 00:42:24;;;;;;;11.60;6.40;;;;;;;10.72;100.00;101259.41;696147;28;1339;-66
2022/10/31 00:42:44;;;;;;;11.25;6.20;;;;;;;10.72;100.00;101264.63;695016;28;4362;-65
2022/10/31 00:43:05;;;;;;;11.60;6.47;;;;;;;10.71;100.00;101262.00;695707;28;1139;-64
2022/10/31 00:43:25;;;;;;;11.57;6.50;;;;;;;10.67;100.00;101252.41;690824;28;1035;-66
2022/10/31 00:43:46;;;;;;;12.83;6.57;;;;;;;10.63;100.00;101259.34;687771;28;1212;-66
2022/10/31 00:44:08;;;;;;;12.25;6.50;;;;;;;10.56;100.00;101255.88;687585;28;1259;-65
2022/10/31 00:44:29;;;;;;;10.40;6.78;;;;;;;10.51;100.00;101262.78;690584;28;1108;-65
2022/10/31 00:44:49;;;;;;;10.35;6.78;;;;;;;10.46;100.00;101255.81;688042;28;1125;-66
2022/10/31 00:45:10;;;;;;;12.27;6.47;;;;;;;10.42;100.00;101256.66;690556;28;1160;-65
2022/10/31 00:45:31;;;;;;;12.82;6.38;;;;;;;10.38;100.00;101254.03;696402;28;1171;-65
2022/10/31 00:45:51;;;;;;;12.23;6.40;;;;;;;10.41;100.00;101250.53;697106;28;4365;-66
2022/10/31 00:46:12;;;;;;;10.60;6.60;;;;;;;10.41;100.00;101247.91;695361;28;1322;-65
2022/10/31 00:46:33;;;;;;;11.85;7.20;;;;;;;10.48;100.00;101252.34;695222;28;1131;-65
2022/10/31 00:46:53;;;;;;;12.30;6.50;;;;;;;10.56;100.00;101252.34;698417;28;1177;-66
2022/10/31 00:47:15;;;;;;;12.52;6.60;;;;;;;10.64;100.00;101255.00;698258;28;1257;-65
2022/10/31 00:47:36;;;;;;;11.18;6.47;;;;;;;10.73;100.00;101257.69;698650;28;1440;-65
2022/10/31 00:47:56;;;;;;;10.68;6.28;;;;;;;10.81;100.00;101260.31;698269;28;1216;-64
2022/10/31 00:48:17;;;;;;;11.17;6.63;;;;;;;10.87;100.00;101265.56;698012;28;1571;-65
2022/10/31 00:48:37;;;;;;;10.07;6.43;;;;;;;10.99;100.00;101262.09;698884;28;1082;-65
2022/10/31 00:48:58;;;;;;;9.55;6.15;;;;;;;11.17;100.00;101266.53;697929;28;4374;-65
2022/10/31 00:49:18;;;;;;;10.07;6.30;;;;;;;11.32;100.00;101265.69;697641;28;1657;-66
2022/10/31 00:49:38;;;;;;;9.48;6.10;;;;;;;11.44;100.00;101270.94;698431;28;1237;-66
2022/10/31 00:49:59;;;;;;;9.37;5.80;;;;;;;11.48;100.00;101277.94;698081;28;1126;-65
2022/10/31 00:50:21;;;;;;;10.90;6.23;;;;;;;11.45;100.00;101272.69;698176;28;1102;-66
2022/10/31 00:50:41;;;;;;;10.25;6.13;;;;;;;11.43;100.00;101279.66;698564;28;1384;-65
2022/10/31 00:51:02;;;;;;;10.63;6.10;;;;;;;11.35;100.00;101281.38;696912;28;1439;-66
2022/10/31 00:51:22;;;;;;;9.85;6.28;;;;;;;11.29;100.00;101282.25;695325;28;1180;-65
2022/10/31 00:51:43;;;;;;;11.47;6.40;;;;;;;11.25;100.00;101275.25;694086;28;4344;-66
2022/10/31 00:52:03;;;;;;;11.90;6.07;;;;;;;11.20;100.00;101272.66;698182;28;1228;-66
2022/10/31 00:52:23;;;;;;;12.93;6.33;;;;;;;11.18;100.00;101270.91;695366;28;1914;-66
2022/10/31 00:52:44;;;;;;;10.57;6.15;;;;;;;11.15;100.00;101277.00;695551;28;1188;-65
2022/10/31 00:53:04;;;;;;;12.83;6.43;;;;;;;11.11;100.00;101275.22;695914;28;1056;-65
2022/10/31 00:53:25;;;;;;;11.07;6.15;;;;;;;11.08;100.00;101270.00;697907;28;1699;-66
2022/10/31 00:53:46;;;;;;;10.98;6.30;;;;;;;11.04;100.00;101276.09;695772;28;1258;-65
2022/10/31 00:54:06;;;;;;;9.97;5.97;;;;;;;11.02;100.00;101272.56;692423;28;1164;-66
2022/10/31 00:54:27;;;;;;;10.65;6.03;;;;;;;11.01;100.00;101274.34;691165;28;1138;-66
2022/10/31 00:54:47;;;;;;;14.27;6.43;;;;;;;11.01;100.00;101271.72;689550;28;4619;-66
2022/10/31 00:55:07;;;;;;;14.15;7.00;;;;;;;11.00;100.00;101280.44;689977;28;1132;-66
2022/10/31 00:55:28;;;;;;;13.20;6.80;;;;;;;11.01;100.00;101270.84;688619;28;1273;-66
2022/10/31 00:55:48;;;;;;;13.48;6.68;;;;;;;11.01;100.00;101270.84;692839;28;1092;-66
2022/10/31 00:56:09;;;;;;;11.30;6.73;;;;;;;10.98;100.00;101270.81;694690;28;1095;-65
2022/10/31 00:56:29;;;;;;;11.40;6.20;;;;;;;10.98;100.00;101278.66;691036;28;1477;-67
2022/10/31 00:56:49;;;;;;;12.77;6.40;;;;;;;10.96;100.00;101275.19;693056;28;1178;-66
2022/10/31 00:57:10;;;;;;;13.00;6.47;;;;;;;10.96;100.00;101276.06;692386;28;1159;-66
2022/10/31 00:57:30;;;;;;;13.82;6.28;;;;;;;10.99;100.00;101278.66;692995;28;1088;-65
2022/10/31 00:57:51;;;;;;;11.90;6.10;;;;;;;11.01;100.00;101281.31;689752;28;4572;-66
2022/10/31 00:58:11;;;;;;;12.35;6.55;;;;;;;11.01;100.00;101284.78;692224;28;1304;-65
2022/10/31 00:58:32;;;;;;;10.97;6.40;;;;;;;10.99;100.00;101286.53;692269;28;1328;-65
2022/10/31 00:58:52;;;;;;;10.20;6.20;;;;;;;10.99;100.00;101283.03;691522;28;923;-66
2022/10/31 00:59:14;;;;;;;9.43;6.03;;;;;;;10.96;100.00;101293.50;691926;28;1417;-66
2022/10/31 00:59:35;;;;;;;10.15;6.32;;;;;;;10.93;100.00;101288.28;690177;28;1420;-65
2022/10/31 00:59:55;;;;;;;11.53;6.00;;;;;;;10.90;100.00;101292.59;688328;28;1028;-66
2022/10/31 01:00:16;;;;;;;10.88;6.10;;;;;;;10.85;100.00;101290.84;690844;28;1100;-65
2022/10/31 01:00:36;;;;;;;10.07;6.03;;;;;;;10.80;100.00;101297.78;692950;28;1230;-65
2022/10/31 01:00:57;;;;;;;11.60;6.40;;;;;;;10.82;100.00;101291.69;689618;28;4595;-65
2022/10/31 01:01:17;;;;;;;10.57;6.43;;;;;;;10.85;100.00;101296.06;693038;28;1232;-66
2022/10/31 01:01:38;;;;;;;9.93;6.18;;;;;;;10.79;100.00;101281.22;692940;28;1260;-66
2022/10/31 01:01:58;;;;;;;10.53;6.10;;;;;;;10.78;100.00;101289.94;692729;28;1578;-65
2022/10/31 01:02:19;;;;;;;12.13;6.65;;;;;;;10.79;100.00;101290.81;692438;28;1495;-66
2022/10/31 01:02:40;;;;;;;13.35;6.63;;;;;;;10.84;100.00;101295.22;690548;28;1265;-66
2022/10/31 01:03:00;;;;;;;11.77;6.22;;;;;;;10.91;100.00;101298.72;692755;28;1205;-66
2022/10/31 01:03:28;;;;;;;9.73;6.27;;;;;;;10.97;100.00;101300.50;692804;28;992;-65
2022/10/31 01:03:49;;;;;;;12.45;6.75;;;;;;;11.01;100.00;101303.13;690949;28;4351;-65
2022/10/31 01:04:09;;;;;;;11.52;6.57;;;;;;;11.04;100.00;101297.88;693762;28;953;-65
2022/10/31 01:04:29;;;;;;;12.23;6.33;;;;;;;11.07;100.00;101299.63;695861;28;1088;-65
2022/10/31 01:04:51;;;;;;;10.77;6.57;;;;;;;11.08;100.00;101298.78;698065;28;934;-65
2022/10/31 01:05:12;;;;;;;11.27;6.68;;;;;;;11.05;100.00;101304.00;697542;28;1067;-65
2022/10/31 01:05:32;;;;;;;11.32;6.30;;;;;;;11.03;100.00;101305.72;700450;28;1171;-65
2022/10/31 01:06:04;;;;;;;10.07;6.57;;;;;;;10.92;100.00;101303.06;701698;28;1340;-66
2022/10/31 01:06:26;;;;;;;10.85;6.57;;;;;;;10.84;100.00;101299.53;700863;28;1295;-66
2022/10/31 01:06:47;;;;;;;10.15;6.60;;;;;;;10.84;100.00;101300.44;697215;28;4683;-65
2022/10/31 01:07:12;;;;;;;11.00;6.60;;;;;;;10.83;100.00;101301.28;699531;28;1189;-66
2022/10/31 01:07:35;;;;;;;11.57;7.05;;;;;;;10.82;100.00;101301.28;692862;28;1352;-66
2022/10/31 01:07:55;;;;;;;10.88;6.75;;;;;;;10.80;100.00;101298.69;692047;28;1324;-65
2022/10/31 01:08:16;;;;;;;11.33;6.80;;;;;;;10.82;100.00;101298.69;689705;28;1298;-65
2022/10/31 01:08:38;;;;;;;9.93;6.68;;;;;;;10.83;100.00;101303.91;687338;28;1185;-65
2022/10/31 01:08:58;;;;;;;11.43;6.50;;;;;;;10.82;100.00;101304.78;690204;28;1403;-66
2022/10/31 01:09:19;;;;;;;11.05;6.45;;;;;;;10.84;100.00;101305.66;689881;28;1809;-66
2022/10/31 01:09:40;;;;;;;11.55;6.38;;;;;;;10.87;100.00;101305.69;690383;28;1328;-66
2022/10/31 01:10:00;;;;;;;12.90;6.23;;;;;;;10.93;100.00;101309.19;689941;28;4440;-66
2022/10/31 01:10:22;;;;;;;12.57;6.53;;;;;;;11.00;100.00;101310.97;687355;28;1490;-65
2022/10/31 01:10:43;;;;;;;10.70;6.38;;;;;;;11.06;100.00;101304.00;689849;28;1471;-66
2022/10/31 01:11:16;;;;;;;10.07;6.00;;;;;;;11.14;100.00;101318.84;690140;28;1247;-66
2022/10/31 01:11:37;;;;;;;12.00;6.68;;;;;;;11.13;100.00;101315.38;690178;28;1261;-65
2022/10/31 01:12:00;;;;;;;10.90;6.68;;;;;;;11.07;100.00;101310.97;690079;28;1334;-66
2022/10/31 01:12:20;;;;;;;10.23;6.80;;;;;;;11.04;100.00;101315.34;693861;28;1910;-66
2022/10/31 01:12:44;;;;;;;11.43;6.80;;;;;;;11.02;100.00;101309.22;695411;28;1210;-65
2022/10/31 01:13:04;;;;;;;11.80;6.65;;;;;;;11.03;100.00;101300.50;697884;28;4615;-65
2022/10/31 01:13:24;;;;;;;11.37;6.70;;;;;;;11.05;100.00;101301.41;692034;28;1305;-66
2022/10/31 01:13:46;;;;;;;13.80;6.60;;;;;;;11.05;100.00;101293.53;694337;28;1106;-65
2022/10/31 01:14:06;;;;;;;13.63;6.70;;;;;;;11.10;100.00;101298.78;693464;28;1229;-67
2022/10/31 01:14:27;;;;;;;10.47;6.33;;;;;;;11.13;100.00;101289.22;692241;28;1263;-65
2022/10/31 01:14:50;;;;;;;11.07;6.50;;;;;;;11.14;100.00;101295.31;689712;28;1307;-65
2022/10/31 01:15:14;;;;;;;11.25;6.55;;;;;;;11.10;100.00;101294.41;690561;28;1349;-66
2022/10/31 01:15:35;;;;;;;10.93;6.55;;;;;;;11.08;100.00;101291.78;690158;28;1273;-66
2022/10/31 01:15:57;;;;;;;13.25;6.88;;;;;;;11.07;100.00;101292.66;690653;28;4392;-65
2022/10/31 01:16:22;;;;;;;13.02;7.05;;;;;;;11.09;100.00;101297.91;693744;28;3540;-66
2022/10/31 01:16:43;;;;;;;9.63;6.00;;;;;;;11.12;100.00;101294.41;692576;28;2149;-66
2022/10/31 01:17:04;;;;;;;9.73;5.93;;;;;;;11.18;100.00;101300.53;694705;28;1028;-66
2022/10/31 01:17:24;;;;;;;8.07;5.78;;;;;;;11.30;100.00;101297.09;696213;28;1322;-67
2022/10/31 01:17:45;;;;;;;11.10;6.07;;;;;;;11.41;100.00;101304.97;695697;28;1072;-66
2022/10/31 01:18:05;;;;;;;9.82;5.68;;;;;;;11.50;100.00;101304.13;695735;28;1380;-65
2022/10/31 01:18:26;;;;;;;9.30;6.00;;;;;;;11.52;100.00;101308.47;692708;28;1751;-66
2022/10/31 01:18:47;;;;;;;10.20;6.00;;;;;;;11.49;100.00;101311.09;691841;28;4522;-66
2022/10/31 01:19:07;;;;;;;11.17;6.60;;;;;;;11.41;100.00;101312.84;691953;28;1342;-65
2022/10/31 01:19:28;;;;;;;12.37;6.23;;;;;;;11.35;100.00;101311.06;690600;28;1311;-65
2022/10/31 01:19:50;;;;;;;12.45;5.97;;;;;;;11.25;100.00;101312.78;691056;28;2122;-66
2022/10/31 01:20:14;;;;;;;9.70;6.22;;;;;;;11.21;100.00;101307.53;689187;28;1351;-67
2022/10/31 01:20:35;;;;;;;10.25;6.22;;;;;;;11.16;100.00;101311.88;689765;28;1107;-66
2022/10/31 01:21:07;;;;;;;10.60;6.67;;;;;;;11.10;100.00;101311.88;689812;28;1049;-66
2022/10/31 01:21:29;;;;;;;12.38;6.45;;;;;;;11.04;100.00;101300.50;693820;28;1131;-65
2022/10/31 01:21:55;;;;;;;12.98;6.57;;;;;;;11.05;100.00;101298.78;694476;28;4366;-65
2022/10/31 01:22:15;;;;;;;11.48;6.97;;;;;;;11.04;100.00;101294.41;694219;28;1274;-66
2022/10/31 01:22:35;;;;;;;12.63;7.00;;;;;;;11.04;100.00;101294.41;694528;28;1262;-65
2022/10/31 01:22:56;;;;;;;13.80;6.83;;;;;;;11.04;100.00;101297.03;693087;28;1067;-65
2022/10/31 01:23:20;;;;;;;12.60;6.93;;;;;;;11.07;100.00;101289.19;693091;28;1355;-65
2022/10/31 01:23:41;;;;;;;13.00;6.68;;;;;;;11.08;100.00;101289.19;695370;28;1416;-65
2022/10/31 01:24:02;;;;;;;11.73;6.22;;;;;;;11.10;100.00;101285.69;692767;28;1374;-66
2022/10/31 01:24:22;;;;;;;11.13;6.63;;;;;;;11.10;100.00;101278.72;693057;28;1055;-66
2022/10/31 01:24:42;;;;;;;11.52;6.95;;;;;;;11.10;100.00;101280.47;689633;28;4319;-66
2022/10/31 01:25:03;;;;;;;10.27;6.57;;;;;;;11.10;100.00;101275.22;690812;28;1068;-66
2022/10/31 01:25:24;;;;;;;11.15;6.47;;;;;;;11.10;100.00;101276.09;692358;28;1240;-66
2022/10/31 01:25:44;;;;;;;11.38;6.35;;;;;;;11.12;100.00;101281.31;693252;28;1159;-65
2022/10/31 01:26:13;;;;;;;10.00;6.20;;;;;;;11.12;100.00;101281.31;693891;28;1250;-66
2022/10/31 01:26:34;;;;;;;11.52;6.45;;;;;;;11.14;100.00;101283.09;694167;28;1242;-66
2022/10/31 01:26:54;;;;;;;10.47;6.13;;;;;;;11.16;100.00;101288.31;695238;28;1118;-66
2022/10/31 01:27:15;;;;;;;10.13;5.93;;;;;;;11.16;100.00;101281.38;696520;28;1351;-66
2022/10/31 01:27:35;;;;;;;10.40;6.20;;;;;;;11.17;100.00;101277.88;695221;28;1326;-66
2022/10/31 01:27:55;;;;;;;11.47;6.57;;;;;;;11.15;100.00;101282.22;692445;28;4340;-66
2022/10/31 01:28:16;;;;;;;10.75;6.50;;;;;;;11.15;100.00;101279.59;691549;28;1119;-65
2022/10/31 01:28:38;;;;;;;11.63;6.63;;;;;;;11.15;100.00;101274.38;694752;28;1269;-65
2022/10/31 01:29:04;;;;;;;12.15;6.78;;;;;;;11.14;100.00;101279.59;692477;28;1436;-65
2022/10/31 01:29:25;;;;;;;13.45;6.75;;;;;;;11.12;100.00;101274.38;692387;28;1283;-66
2022/10/31 01:29:45;;;;;;;11.87;6.77;;;;;;;11.13;100.00;101276.13;696704;28;1126;-65
2022/10/31 01:30:06;;;;;;;11.23;6.40;;;;;;;11.14;100.00;101274.38;695631;28;1496;-66
2022/10/31 01:30:26;;;;;;;11.07;6.53;;;;;;;11.13;100.00;101270.91;694952;28;1284;-66
2022/10/31 01:30:47;;;;;;;10.80;6.33;;;;;;;11.15;100.00;101271.75;695954;28;4285;-65
2022/10/31 01:31:08;;;;;;;11.03;6.33;;;;;;;11.15;100.00;101269.13;695350;28;1158;-66
2022/10/31 01:31:33;;;;;;;12.23;6.70;;;;;;;11.17;100.00;101271.75;695045;28;1509;-66
2022/10/31 01:31:53;;;;;;;11.13;6.22;;;;;;;11.17;100.00;101267.41;696012;28;1154;-65
2022/10/31 01:32:14;;;;;;;10.30;6.30;;;;;;;11.17;100.00;101272.66;695157;28;1973;-66
2022/10/31 01:32:34;;;;;;;12.95;6.65;;;;;;;11.18;100.00;101270.91;694891;28;1177;-65
2022/10/31 01:32:54;;;;;;;12.90;6.57;;;;;;;11.17;100.00;101271.75;695978;28;1150;-66
2022/10/31 01:33:15;;;;;;;12.00;6.78;;;;;;;11.18;100.00;101268.28;697940;28;1149;-66
2022/10/31 01:33:36;;;;;;;10.50;6.50;;;;;;;11.19;100.00;101272.66;694613;28;1575;-65
2022/10/31 01:33:57;;;;;;;9.93;6.05;;;;;;;11.19;100.00;101270.03;695338;28;4259;-66
2022/10/31 01:34:17;;;;;;;10.50;6.37;;;;;;;11.17;100.00;101269.13;697869;28;1095;-66
2022/10/31 01:34:38;;;;;;;10.38;6.63;;;;;;;11.16;100.00;101272.63;698266;28;1059;-65
2022/10/31 01:34:58;;;;;;;8.83;6.23;;;;;;;11.13;100.00;101268.28;698442;28;1071;-66
2022/10/31 01:35:18;;;;;;;9.67;6.37;;;;;;;11.12;100.00;101263.91;697963;28;1273;-65
2022/10/31 01:35:39;;;;;;;10.07;6.50;;;;;;;11.13;100.00;101265.66;696785;28;1359;-65
2022/10/31 01:35:59;;;;;;;11.77;6.50;;;;;;;11.15;100.00;101268.28;698392;28;1240;-66
2022/10/31 01:36:19;;;;;;;10.88;6.00;;;;;;;11.15;100.00;101263.03;698112;28;1229;-66
2022/10/31 01:36:40;;;;;;;9.80;6.00;;;;;;;11.14;100.00;101267.38;698098;28;1106;-65
2022/10/31 01:37:01;;;;;;;11.30;6.43;;;;;;;11.13;100.00;101264.75;698309;28;4500;-66
2022/10/31 01:37:21;;;;;;;11.82;6.60;;;;;;;11.11;100.00;101264.75;697904;28;1348;-66
2022/10/31 01:37:42;;;;;;;11.10;6.67;;;;;;;11.11;100.00;101270.00;695636;28;1360;-66
2022/10/31 01:38:02;;;;;;;10.60;6.27;;;;;;;11.14;100.00;101256.91;695520;28;1142;-65
2022/10/31 01:38:23;;;;;;;10.50;6.20;;;;;;;11.15;100.00;101258.66;695361;28;1284;-66
2022/10/31 01:38:45;;;;;;;11.93;6.30;;;;;;;11.17;100.00;101259.56;694918;28;5207;-65